Terminal Aerodrome Forecast
Issued by NWS

Home | Current Version | Previous Version | Text Only | Print | Product List | Glossary On
Versions: 1 2 3 4 5 6 7 8 9 10 11 12 13 14 15 16 17 18 19 20 21
000
FTUS43 KPAH 262330
TAFCGI
TAF
KCGI 262330Z 2700/2724 VRB04KT P6SM BKN250
     FM271000 14007KT 6SM -SHRA OVC050
      TEMPO 2710/2714 3SM TSRA BKN035CB
     FM271400 18009KT P6SM BKN035
     FM272000 21008KT P6SM VCTS BKN045CB=

USA.gov is the U.S. government's official web portal to all federal, state and local government web resources and services.